Time;durP1;ratioP1;P1;durP2;ratioP2;P2;SDS_P1;SDS_P2;PMS_P1;PMS_P2;Temp;Humidity;BMP_temperature;BMP_pressure;BME280_temperature;BME280_humidity;BME280_pressure;Samples;Min_cycle;Max_cycle;Signal;HPM_P1;HPM_P2
2022/07/26 00:02:38;;;;;;;3.95;2.30;;;32.50;52.10;;;;;;10908708;32;20058;-72
2022/07/26 00:08:40;;;;;;;5.25;3.17;;;32.50;51.80;;;;;;10908558;32;20041;-72
2022/07/26 00:14:42;;;;;;;6.97;2.83;;;32.50;51.80;;;;;;10908339;32;20305;-71
2022/07/26 00:20:47;;;;;;;4.22;2.62;;;32.60;51.70;;;;;;10907965;32;20054;-71
2022/07/26 00:26:49;;;;;;;4.85;3.40;;;32.50;52.00;;;;;;10907785;32;20043;-72
2022/07/26 00:32:54;;;;;;;4.30;2.75;;;32.40;52.70;;;;;;10907592;32;20399;-72
2022/07/26 00:38:56;;;;;;;4.32;3.05;;;32.30;53.50;;;;;;10906591;32;20020;-71
2022/07/26 00:44:58;;;;;;;4.28;2.58;;;32.30;53.80;;;;;;10907210;32;20364;-71
2022/07/26 00:51:00;;;;;;;5.78;3.70;;;32.20;53.90;;;;;;10906879;32;20039;-70
2022/07/26 00:57:03;;;;;;;4.20;3.05;;;32.10;54.00;;;;;;10893462;32;20019;-71
2022/07/26 01:03:11;;;;;;;4.20;2.72;;;32.00;54.20;;;;;;10906075;32;20027;-70
2022/07/26 01:09:13;;;;;;;11.35;3.00;;;31.90;54.30;;;;;;10906285;32;20007;-71
2022/07/26 01:15:18;;;;;;;4.12;2.78;;;31.80;54.50;;;;;;10906207;32;20050;-68
2022/07/26 01:21:21;;;;;;;7.45;3.17;;;31.60;55.50;;;;;;10905240;32;20027;-70
2022/07/26 01:27:23;;;;;;;4.40;2.50;;;31.50;55.60;;;;;;10903710;32;20024;-71
2022/07/26 01:33:55;;;;;;;3.25;1.98;;;31.50;55.60;;;;;;10901467;32;20305;-71
2022/07/26 01:39:57;;;;;;;3.72;2.33;;;31.60;55.80;;;;;;10901125;32;20023;-70
2022/07/26 01:45:59;;;;;;;7.30;2.45;;;31.50;56.10;;;;;;10905065;32;20042;-70
2022/07/26 01:52:02;;;;;;;3.28;2.22;;;31.50;56.20;;;;;;10904942;32;20343;-71
2022/07/26 01:58:05;;;;;;;4.07;2.35;;;31.40;57.20;;;;;;10904743;32;20046;-69
2022/07/26 02:04:57;;;;;;;3.33;2.20;;;31.30;57.50;;;;;;10902614;32;20035;-71
2022/07/26 02:16:58;;;;;;;3.70;2.37;;;31.30;58.10;;;;;;10903846;32;20090;-70
2022/07/26 02:23:00;;;;;;;2.40;1.62;;;31.10;58.40;;;;;;10904367;32;20011;-71
2022/07/26 02:29:03;;;;;;;4.05;2.20;;;31.10;58.90;;;;;;10904070;32;20050;-69
2022/07/26 02:35:05;;;;;;;3.40;2.53;;;31.10;58.60;;;;;;10903937;32;20015;-68
2022/07/26 02:41:07;;;;;;;2.72;1.73;;;31.10;58.90;;;;;;10900061;32;20015;-71
2022/07/26 02:47:09;;;;;;;2.50;1.48;;;31.10;59.00;;;;;;10903936;32;20015;-71
2022/07/26 02:53:11;;;;;;;5.53;2.28;;;31.10;58.90;;;;;;10903716;32;20396;-71
2022/07/26 02:59:13;;;;;;;2.42;1.67;;;31.10;58.70;;;;;;10903693;32;20065;-71
2022/07/26 03:05:17;;;;;;;2.67;1.87;;;31.10;58.70;;;;;;10903580;32;20185;-71
2022/07/26 03:11:19;;;;;;;2.53;1.17;;;31.10;58.60;;;;;;10903480;32;20392;-71
2022/07/26 03:17:21;;;;;;;4.18;2.37;;;31.10;58.20;;;;;;10899282;32;20049;-71
2022/07/26 03:23:23;;;;;;;2.78;1.05;;;31.00;58.10;;;;;;10903335;32;20027;-71
2022/07/26 03:29:25;;;;;;;2.37;1.70;;;30.90;57.90;;;;;;10909255;32;20046;-71
2022/07/26 03:35:27;;;;;;;3.47;2.20;;;30.80;58.00;;;;;;10909711;32;20020;-71
2022/07/26 03:41:30;;;;;;;2.85;1.67;;;30.80;57.60;;;;;;10909598;32;20007;-71
2022/07/26 03:47:32;;;;;;;2.28;1.58;;;30.70;57.70;;;;;;10909371;32;20046;-71
2022/07/26 03:53:34;;;;;;;2.35;1.58;;;30.60;57.60;;;;;;10909145;32;20042;-71
2022/07/26 03:59:36;;;;;;;2.67;1.67;;;30.40;57.60;;;;;;10908934;32;20031;-71
2022/07/26 04:05:38;;;;;;;4.20;2.15;;;30.30;57.70;;;;;;10908605;32;20473;-71
2022/07/26 04:11:42;;;;;;;2.67;1.80;;;30.40;57.50;;;;;;10905589;32;20371;-71
2022/07/26 04:17:46;;;;;;;4.30;1.45;;;30.50;57.30;;;;;;10908392;32;20053;-71
2022/07/26 04:23:49;;;;;;;2.33;1.52;;;30.40;57.30;;;;;;10907324;32;20077;-71
2022/07/26 04:29:51;;;;;;;4.68;2.10;;;30.30;57.50;;;;;;10910972;27;20035;-71
2022/07/26 04:35:53;;;;;;;1.73;1.05;;;30.30;57.70;;;;;;10907062;32;20023;-71
2022/07/26 04:41:55;;;;;;;3.85;1.37;;;30.30;57.30;;;;;;10907509;32;20332;-71
2022/07/26 04:47:57;;;;;;;3.97;1.95;;;30.10;57.50;;;;;;10907238;32;20019;-71
2022/07/26 04:54:00;;;;;;;2.25;1.83;;;30.10;57.40;;;;;;10906818;32;20023;-71
2022/07/26 05:00:05;;;;;;;2.10;1.23;;;30.10;57.30;;;;;;10906752;32;20015;-71
2022/07/26 05:06:28;;;;;;;2.62;1.90;;;30.10;57.30;;;;;;10902825;32;20035;-71
2022/07/26 05:12:30;;;;;;;2.55;1.20;;;30.10;57.20;;;;;;10906357;32;20050;-71
2022/07/26 05:18:32;;;;;;;3.50;1.60;;;30.00;57.10;;;;;;10904582;32;20042;-70
2022/07/26 05:24:34;;;;;;;3.03;1.67;;;30.00;57.10;;;;;;10901701;32;20027;-71
2022/07/26 05:30:36;;;;;;;2.33;1.60;;;29.90;57.10;;;;;;10905236;32;20023;-70
2022/07/26 05:36:40;;;;;;;3.08;1.95;;;30.00;57.00;;;;;;10901523;32;20085;-71
2022/07/26 05:42:43;;;;;;;2.80;2.10;;;30.00;57.00;;;;;;10901887;32;20042;-70
2022/07/26 05:48:45;;;;;;;2.62;1.40;;;30.00;56.70;;;;;;10899795;32;20339;-71
2022/07/26 05:54:47;;;;;;;3.00;1.67;;;30.00;56.80;;;;;;10904909;32;20046;-71
2022/07/26 06:00:49;;;;;;;3.37;1.52;;;30.10;56.50;;;;;;10903827;32;20063;-71
2022/07/26 06:06:51;;;;;;;3.95;2.00;;;30.30;56.10;;;;;;10904541;32;20050;-71
2022/07/26 06:12:53;;;;;;;2.28;1.40;;;30.50;55.80;;;;;;10900315;32;20031;-71
2022/07/26 06:18:55;;;;;;;4.03;1.62;;;30.70;55.50;;;;;;10900680;32;20035;-71
2022/07/26 06:24:57;;;;;;;6.40;1.10;;;30.80;55.20;;;;;;10900761;32;20439;-71
2022/07/26 06:31:02;;;;;;;2.45;1.70;;;31.00;54.90;;;;;;10898579;32;20055;-71
2022/07/26 06:37:04;;;;;;;3.28;1.65;;;31.10;54.50;;;;;;10870018;32;20035;-70
2022/07/26 06:43:08;;;;;;;3.03;1.55;;;31.20;54.30;;;;;;10862406;32;20068;-68
2022/07/26 06:49:10;;;;;;;3.97;1.35;;;31.30;54.00;;;;;;10861920;32;20028;-70
2022/07/26 06:55:13;;;;;;;1.45;1.02;;;31.30;53.70;;;;;;10862152;32;20058;-69
2022/07/26 07:01:15;;;;;;;5.12;1.95;;;31.30;53.40;;;;;;10867279;32;20042;-69
2022/07/26 07:07:17;;;;;;;3.17;2.08;;;31.30;53.30;;;;;;10869126;32;20392;-67
2022/07/26 07:13:19;;;;;;;2.72;1.62;;;31.40;52.50;;;;;;10869316;32;20070;-70
2022/07/26 07:19:44;;;;;;;4.35;2.20;;;31.40;51.40;;;;;;10871362;32;20028;-68
2022/07/26 07:25:47;;;;;;;5.57;2.05;;;31.60;51.30;;;;;;10870172;32;20054;-68
2022/07/26 07:31:49;;;;;;;5.03;2.10;;;31.60;50.90;;;;;;10871432;32;20376;-69
2022/07/26 07:37:51;;;;;;;3.17;1.85;;;31.70;50.50;;;;;;10857489;32;20054;-70
2022/07/26 07:43:58;;;;;;;2.40;1.50;;;31.70;50.20;;;;;;10856801;32;20047;-69
2022/07/26 07:50:21;;;;;;;3.00;2.08;;;31.80;50.50;;;;;;10855910;32;20024;-68
2022/07/26 07:56:23;;;;;;;5.37;2.90;;;32.00;49.70;;;;;;10869927;32;20027;-68
2022/07/26 08:02:25;;;;;;;2.37;1.37;;;32.00;49.50;;;;;;10869138;32;20019;-71
2022/07/26 08:08:28;;;;;;;3.03;1.90;;;32.10;49.50;;;;;;10867655;32;20032;-70
2022/07/26 08:14:30;;;;;;;2.67;1.85;;;32.20;49.40;;;;;;10857523;32;20403;-69
2022/07/26 08:20:32;;;;;;;1.58;1.20;;;32.40;49.20;;;;;;10870802;32;20043;-69
2022/07/26 08:26:39;;;;;;;2.40;1.48;;;32.70;48.80;;;;;;10870654;32;20324;-69
2022/07/26 08:32:41;;;;;;;4.35;1.45;;;32.70;48.50;;;;;;10877982;32;20027;-70
2022/07/26 08:38:44;;;;;;;2.17;1.67;;;32.80;48.40;;;;;;10891683;32;20054;-68
2022/07/26 08:44:48;;;;;;;3.05;2.03;;;32.90;48.10;;;;;;10867827;32;20049;-68
2022/07/26 08:50:50;;;;;;;4.40;2.33;;;33.00;47.00;;;;;;10867920;32;20110;-68
2022/07/26 08:56:53;;;;;;;2.92;1.90;;;33.00;46.90;;;;;;10869629;32;20450;-70
2022/07/26 09:03:00;;;;;;;3.28;1.50;;;33.10;46.70;;;;;;10856087;32;20058;-70
2022/07/26 09:09:09;;;;;;;;;;;33.40;47.00;;;;;;10865396;32;20335;-70
2022/07/26 09:15:20;;;;;;;3.90;2.30;;;33.60;46.30;;;;;;10867578;32;19934;-73
2022/07/26 09:21:34;;;;;;;3.55;2.47;;;33.60;46.40;;;;;;10868757;32;20301;-73
2022/07/26 09:27:37;;;;;;;3.50;2.47;;;33.90;46.00;;;;;;10868241;32;20046;-73
2022/07/26 09:33:45;;;;;;;3.58;2.45;;;34.00;45.90;;;;;;10868204;32;20063;-73
2022/07/26 09:39:59;;;;;;;7.97;2.15;;;34.20;45.20;;;;;;10868120;32;20087;-72
2022/07/26 09:46:05;;;;;;;3.25;2.00;;;34.30;44.50;;;;;;10867993;32;20023;-73
2022/07/26 09:52:16;;;;;;;3.58;2.33;;;34.40;44.60;;;;;;10902084;32;20384;-73
2022/07/26 09:58:18;;;;;;;3.35;2.10;;;34.60;43.70;;;;;;10888880;32;20438;-72
2022/07/26 10:04:26;;;;;;;5.80;2.12;;;34.70;43.40;;;;;;10904454;32;20043;-72
2022/07/26 10:10:33;;;;;;;3.62;2.45;;;34.80;43.70;;;;;;10891081;32;20380;-71
2022/07/26 10:16:35;;;;;;;4.00;2.85;;;35.00;43.50;;;;;;10904411;32;20324;-70
2022/07/26 10:22:46;;;;;;;4.00;2.15;;;35.10;42.80;;;;;;10904343;32;20049;-70
2022/07/26 10:28:51;;;;;;;3.72;2.50;;;35.30;42.40;;;;;;10903410;32;20280;-71
2022/07/26 10:34:54;;;;;;;7.60;2.87;;;35.40;42.10;;;;;;10903687;32;20039;-70
2022/07/26 10:40:58;;;;;;;3.97;2.35;;;35.50;42.40;;;;;;10909065;32;20023;-70
2022/07/26 10:47:11;;;;;;;3.25;2.00;;;35.60;42.30;;;;;;10895694;32;20378;-70
2022/07/26 10:53:22;;;;;;;4.28;2.17;;;35.70;42.40;;;;;;10908758;32;20038;-71
2022/07/26 10:59:37;;;;;;;6.78;2.80;;;35.90;41.80;;;;;;10908630;32;20038;-70
2022/07/26 11:05:40;;;;;;;3.78;1.92;;;36.10;41.70;;;;;;10908038;32;20057;-70
2022/07/26 11:11:42;;;;;;;3.47;2.10;;;36.10;41.80;;;;;;10908787;32;20023;-70
2022/07/26 11:17:44;;;;;;;4.85;2.70;;;36.30;42.50;;;;;;10908047;32;20050;-69
2022/07/26 11:23:47;;;;;;;6.70;2.08;;;36.40;42.00;;;;;;10906218;32;20050;-70
2022/07/26 11:29:49;;;;;;;10.48;3.97;;;36.60;41.50;;;;;;10500504;32;12143459;-71
2022/07/26 11:35:51;;;;;;;6.35;3.25;;;36.70;41.30;;;;;;10827867;32;20044;-71
2022/07/26 11:42:01;;;;;;;4.25;2.30;;;36.90;41.30;;;;;;10831454;32;20054;-71
2022/07/26 11:48:04;;;;;;;5.18;3.05;;;37.20;40.90;;;;;;10831276;32;20024;-70
2022/07/26 11:54:06;;;;;;;8.43;3.60;;;37.40;40.20;;;;;;10850327;32;20039;-71
2022/07/26 12:00:09;;;;;;;5.95;3.70;;;37.60;39.90;;;;;;10909016;32;20019;-71
2022/07/26 12:06:16;;;;;;;7.68;5.05;;;37.60;39.70;;;;;;10904612;32;20038;-71
2022/07/26 12:12:30;;;;;;;;;;;37.60;40.40;;;;;;10908881;32;20336;-71
2022/07/26 12:18:34;;;;;;;7.53;3.62;;;37.40;41.20;;;;;;10896476;32;19918;-70
2022/07/26 12:24:46;;;;;;;10.70;4.05;;;37.40;41.10;;;;;;10908761;32;20020;-70
2022/07/26 12:30:49;;;;;;;7.15;2.87;;;37.30;40.60;;;;;;10910469;27;20019;-70
2022/07/26 12:37:07;;;;;;;4.03;2.80;;;37.20;39.80;;;;;;10894316;32;20024;-71
2022/07/26 12:43:11;;;;;;;4.75;3.03;;;37.40;39.20;;;;;;10894178;32;20065;-71
2022/07/26 12:49:13;;;;;;;3.62;2.35;;;37.50;38.60;;;;;;10907311;32;20019;-70
2022/07/26 12:55:19;;;;;;;4.32;2.10;;;37.40;38.50;;;;;;10906770;32;20074;-71
2022/07/26 13:01:22;;;;;;;4.07;1.45;;;37.20;39.00;;;;;;10906226;32;20023;-72
2022/07/26 13:07:24;;;;;;;1.92;1.40;;;37.00;38.70;;;;;;10906658;32;20003;-69
2022/07/26 13:13:26;;;;;;;1.85;1.17;;;36.90;38.20;;;;;;10906343;32;20058;-71
2022/07/26 13:19:28;;;;;;;2.55;1.67;;;36.80;37.90;;;;;;10906256;32;20030;-70
2022/07/26 13:25:31;;;;;;;5.50;1.60;;;37.00;36.90;;;;;;10905851;32;20145;-71
2022/07/26 13:31:33;;;;;;;10.00;2.08;;;37.00;37.10;;;;;;10904696;32;20050;-71
2022/07/26 13:37:37;;;;;;;1.75;1.25;;;37.00;37.20;;;;;;10905505;32;20023;-71
2022/07/26 13:43:39;;;;;;;6.18;1.45;;;37.10;36.60;;;;;;10905401;32;20046;-72
2022/07/26 13:49:41;;;;;;;3.12;1.67;;;37.00;36.50;;;;;;10900111;32;20019;-71
2022/07/26 13:55:55;;;;;;;2.28;1.55;;;36.90;37.70;;;;;;10901152;32;20022;-71
2022/07/26 14:01:57;;;;;;;2.92;1.30;;;36.90;37.30;;;;;;10904733;32;20045;-71
2022/07/26 14:07:59;;;;;;;2.67;1.58;;;36.90;36.90;;;;;;10904506;32;20335;-72
2022/07/26 14:14:08;;;;;;;5.60;2.40;;;37.00;37.10;;;;;;10897451;32;20431;-69
2022/07/26 14:20:11;;;;;;;3.95;1.52;;;37.00;37.00;;;;;;10867016;32;20050;-72
2022/07/26 14:26:14;;;;;;;2.70;1.35;;;36.90;37.60;;;;;;10866812;32;20020;-71
2022/07/26 14:32:16;;;;;;;7.50;1.90;;;37.00;37.50;;;;;;10866561;32;20384;-70
2022/07/26 14:38:19;;;;;;;2.42;1.48;;;37.00;37.30;;;;;;10866622;32;20431;-72
2022/07/26 14:44:21;;;;;;;2.85;1.60;;;37.00;36.90;;;;;;10858672;32;20549;-72
2022/07/26 14:50:24;;;;;;;5.15;2.35;;;36.90;37.70;;;;;;10888371;32;20050;-72
2022/07/26 14:56:27;;;;;;;5.07;2.55;;;36.60;39.10;;;;;;10903480;32;20046;-71
2022/07/26 15:02:29;;;;;;;4.82;2.28;;;36.40;40.60;;;;;;10903589;32;20430;-73
2022/07/26 15:08:45;;;;;;;5.80;2.75;;;36.60;40.90;;;;;;10886012;32;20055;-70
2022/07/26 15:14:47;;;;;;;4.80;2.25;;;36.40;41.60;;;;;;10867256;32;20027;-72
2022/07/26 15:20:50;;;;;;;7.78;2.33;;;36.10;42.10;;;;;;10904193;32;20305;-72
2022/07/26 15:26:52;;;;;;;5.18;1.67;;;35.90;42.10;;;;;;10909870;32;20028;-72
2022/07/26 15:32:55;;;;;;;3.20;2.15;;;35.90;42.00;;;;;;10908061;32;20057;-71
2022/07/26 15:39:16;;;;;;;6.00;2.25;;;35.90;42.20;;;;;;10894285;32;20359;-70
2022/07/26 15:45:18;;;;;;;3.30;1.92;;;36.10;41.70;;;;;;10879215;32;20381;-70
2022/07/26 15:51:23;;;;;;;4.12;1.92;;;36.10;41.60;;;;;;10871728;32;20325;-71
2022/07/26 15:57:25;;;;;;;8.90;1.80;;;36.10;41.70;;;;;;10880212;32;20046;-70
2022/07/26 16:03:27;;;;;;;1.83;1.48;;;36.00;41.60;;;;;;10871371;32;20019;-70
2022/07/26 16:09:29;;;;;;;2.53;1.30;;;35.90;41.70;;;;;;10871031;32;20017;-71
2022/07/26 16:15:31;;;;;;;2.55;1.48;;;35.70;42.20;;;;;;10870759;32;20082;-71
2022/07/26 16:21:33;;;;;;;2.10;1.55;;;35.60;42.30;;;;;;10872294;32;20308;-70
2022/07/26 16:27:35;;;;;;;3.70;1.10;;;35.60;42.40;;;;;;10870538;32;20473;-71
2022/07/26 16:33:37;;;;;;;1.70;1.17;;;35.40;42.50;;;;;;10869438;32;20019;-71
2022/07/26 16:39:39;;;;;;;2.70;1.80;;;35.40;42.50;;;;;;10869985;32;20316;-70
2022/07/26 16:45:41;;;;;;;3.85;2.28;;;35.30;42.70;;;;;;10865141;32;20101;-71
2022/07/26 16:51:43;;;;;;;5.50;1.83;;;35.10;43.10;;;;;;10906170;32;20031;-71
2022/07/26 16:58:04;;;;;;;2.72;1.12;;;35.00;43.20;;;;;;10902979;32;20384;-71
2022/07/26 17:04:06;;;;;;;2.58;1.37;;;34.90;43.50;;;;;;10906148;32;20392;-71
2022/07/26 17:10:27;;;;;;;2.15;1.27;;;34.90;43.70;;;;;;10905834;32;20015;-71
2022/07/26 17:16:35;;;;;;;3.28;1.45;;;34.90;43.80;;;;;;10905788;32;20395;-71
2022/07/26 17:22:37;;;;;;;2.25;1.10;;;34.90;43.80;;;;;;10892488;32;20049;-71
2022/07/26 17:28:39;;;;;;;2.60;1.10;;;34.80;44.00;;;;;;10892069;32;20046;-71
2022/07/26 17:34:41;;;;;;;3.75;1.98;;;34.60;44.50;;;;;;10882175;32;20484;-71
2022/07/26 17:40:43;;;;;;;1.70;0.98;;;34.60;44.80;;;;;;10859755;32;20030;-72
2022/07/26 17:46:46;;;;;;;1.27;0.70;;;34.60;45.00;;;;;;10862324;32;20023;-71
2022/07/26 17:52:49;;;;;;;2.78;1.62;;;34.60;45.00;;;;;;10881611;32;20062;-72
2022/07/26 17:58:51;;;;;;;2.17;1.05;;;34.50;45.30;;;;;;10884264;32;20027;-71
2022/07/26 18:05:10;;;;;;;13.02;1.50;;;34.50;45.30;;;;;;10869167;32;20027;-71
2022/07/26 18:11:13;;;;;;;1.48;0.85;;;34.60;45.20;;;;;;10867228;32;20396;-71
2022/07/26 18:17:15;;;;;;;2.35;0.90;;;34.60;45.20;;;;;;10865010;32;20104;-72
2022/07/26 18:23:21;;;;;;;3.85;1.17;;;34.40;45.50;;;;;;10866632;32;20392;-72
2022/07/26 18:29:23;;;;;;;3.63;1.43;;;34.30;45.80;;;;;;10867071;32;20106;-72
2022/07/26 18:35:27;;;;;;;1.33;0.88;;;34.20;46.00;;;;;;10903823;32;20027;-72
2022/07/26 18:41:30;;;;;;;1.62;0.90;;;34.10;46.50;;;;;;10904098;32;20016;-73
2022/07/26 18:47:37;;;;;;;1.27;0.77;;;33.90;46.90;;;;;;10903838;32;20059;-72
2022/07/26 18:53:39;;;;;;;;;;;33.90;47.00;;;;;;10903946;32;20054;-72
2022/07/26 18:59:40;;;;;;;0.60;0.60;;;33.80;47.20;;;;;;10909725;32;19918;-72
2022/07/26 19:05:43;;;;;;;1.20;0.75;;;33.70;47.80;;;;;;10910947;32;20019;-72
2022/07/26 19:11:46;;;;;;;1.62;0.93;;;33.60;48.40;;;;;;10910754;32;20038;-72
2022/07/26 19:17:48;;;;;;;4.20;1.58;;;33.50;48.90;;;;;;10907000;32;20046;-72
2022/07/26 19:23:50;;;;;;;7.15;1.60;;;33.40;49.50;;;;;;10910298;32;20034;-72
2022/07/26 19:29:55;;;;;;;3.08;1.45;;;33.40;49.30;;;;;;10910020;32;20054;-72
2022/07/26 19:35:57;;;;;;;2.62;1.20;;;33.40;49.30;;;;;;10909610;32;20030;-72
2022/07/26 19:41:59;;;;;;;2.72;1.48;;;33.30;49.30;;;;;;10902524;32;20039;-72
2022/07/26 19:48:03;;;;;;;2.65;1.33;;;33.30;49.40;;;;;;10872050;32;20055;-72
2022/07/26 19:54:06;;;;;;;1.52;1.17;;;33.20;49.80;;;;;;10871888;32;20031;-72
2022/07/26 20:00:09;;;;;;;1.87;0.98;;;33.00;50.40;;;;;;10870942;32;20011;-72
2022/07/26 20:06:12;;;;;;;1.55;0.95;;;32.90;50.50;;;;;;10871423;32;20073;-72
2022/07/26 20:12:16;;;;;;;1.23;1.08;;;32.90;50.80;;;;;;10867233;32;20062;-72
2022/07/26 20:18:20;;;;;;;1.73;1.10;;;32.80;51.20;;;;;;10871223;32;20019;-72
2022/07/26 20:24:22;;;;;;;2.15;1.45;;;32.80;51.10;;;;;;10870816;32;20093;-72
2022/07/26 20:30:25;;;;;;;1.83;1.00;;;32.70;51.10;;;;;;10896575;27;20043;-72
2022/07/26 20:36:27;;;;;;;2.05;1.37;;;32.70;51.50;;;;;;10907807;32;20023;-72
2022/07/26 20:42:29;;;;;;;4.45;1.42;;;32.50;52.20;;;;;;10907583;32;20058;-72
2022/07/26 20:48:35;;;;;;;1.80;1.25;;;32.40;52.70;;;;;;10907555;32;20003;-72
2022/07/26 20:54:37;;;;;;;2.60;1.33;;;32.40;53.00;;;;;;10907191;32;20035;-72
2022/07/26 21:00:39;;;;;;;1.90;1.08;;;32.30;53.20;;;;;;10907018;32;20324;-72
2022/07/26 21:06:42;;;;;;;2.70;1.50;;;32.30;53.40;;;;;;10906710;32;20059;-72
2022/07/26 21:12:45;;;;;;;3.08;1.75;;;32.20;53.50;;;;;;10906422;32;20059;-72
2022/07/26 21:18:47;;;;;;;5.60;1.83;;;32.10;53.70;;;;;;10905916;32;20016;-71
2022/07/26 21:25:08;;;;;;;2.25;1.73;;;31.90;54.30;;;;;;10906820;32;20050;-71
2022/07/26 21:31:11;;;;;;;2.55;1.30;;;31.80;54.90;;;;;;10905933;32;20020;-71
2022/07/26 21:37:13;;;;;;;3.33;2.03;;;31.60;55.80;;;;;;10892403;32;20053;-71
2022/07/26 21:43:16;;;;;;;2.20;1.48;;;31.40;56.00;;;;;;10906185;32;20023;-71
2022/07/26 21:49:18;;;;;;;1.42;1.17;;;31.40;56.70;;;;;;10905294;32;20348;-70
2022/07/26 21:55:20;;;;;;;1.85;1.15;;;31.30;57.10;;;;;;10904944;32;20027;-68
2022/07/26 22:01:22;;;;;;;2.87;1.52;;;31.30;57.30;;;;;;10891781;32;20030;-69
2022/07/26 22:07:25;;;;;;;3.78;1.80;;;31.20;57.20;;;;;;10906694;32;20030;-70
2022/07/26 22:13:27;;;;;;;3.03;1.62;;;31.10;58.10;;;;;;10903557;32;20065;-69
2022/07/26 22:19:29;;;;;;;3.08;1.17;;;31.00;58.00;;;;;;10867511;32;20058;-69
2022/07/26 22:25:32;;;;;;;3.25;2.00;;;30.90;58.20;;;;;;10895135;32;20355;-69
2022/07/26 22:31:34;;;;;;;2.55;1.60;;;30.80;58.20;;;;;;10907807;32;20400;-71
2022/07/26 22:37:36;;;;;;;2.80;1.42;;;30.80;58.80;;;;;;10912145;32;20033;-71
2022/07/26 22:43:39;;;;;;;2.33;1.52;;;30.80;59.50;;;;;;10911945;32;20442;-70
2022/07/26 22:49:41;;;;;;;2.78;1.55;;;30.80;60.00;;;;;;10908995;32;20065;-68
2022/07/26 22:55:43;;;;;;;4.90;1.52;;;30.70;60.00;;;;;;10910431;32;20297;-69
2022/07/26 23:01:45;;;;;;;1.83;1.50;;;30.60;60.20;;;;;;10911238;32;20058;-71
2022/07/26 23:07:49;;;;;;;2.37;1.58;;;30.50;60.60;;;;;;10911167;32;20016;-69
2022/07/26 23:13:51;;;;;;;2.20;1.10;;;30.40;60.50;;;;;;10910737;32;20046;-70
2022/07/26 23:19:53;;;;;;;0.88;0.70;;;30.40;61.10;;;;;;10910390;32;20332;-72
2022/07/26 23:25:56;;;;;;;1.85;1.17;;;30.40;61.20;;;;;;10910382;32;20027;-71
2022/07/26 23:31:59;;;;;;;2.20;1.15;;;30.50;61.10;;;;;;10910101;32;20054;-70
2022/07/26 23:38:01;;;;;;;1.15;0.80;;;30.50;60.90;;;;;;10909893;32;20320;-69
2022/07/26 23:44:33;;;;;;;3.62;1.08;;;30.60;60.80;;;;;;10754230;33;20068;-71
2022/07/26 23:50:35;;;;;;;2.22;1.42;;;30.70;60.70;;;;;;10758333;33;20024;-67
2022/07/26 23:56:37;;;;;;;1.83;1.40;;;30.60;60.80;;;;;;10758517;33;20341;-71
